Time;durP1;ratioP1;P1;durP2;ratioP2;P2;SDS_P1;SDS_P2;PMS_P1;PMS_P2;Temp;Humidity;BMP_temperature;BMP_pressure;BME280_temperature;BME280_humidity;BME280_pressure;Samples;Min_cycle;Max_cycle;Signal;HPM_P1;HPM_P2
2023/04/07 00:04:22;;;;;;;26.92;19.05;;;;;;;7.71;64.70;99828.28;10254050;28;20050;-59
2023/04/07 00:09:25;;;;;;;33.15;21.42;;;;;;;7.74;64.92;99833.34;10257275;28;20142;-60
2023/04/07 00:14:27;;;;;;;17.90;14.73;;;;;;;7.78;64.65;99829.66;10253096;28;20118;-59
2023/04/07 00:19:29;;;;;;;24.90;17.73;;;;;;;7.71;64.67;99817.84;10257614;28;20046;-59
2023/04/07 00:24:31;;;;;;;22.77;16.80;;;;;;;7.64;65.17;99813.88;10253560;28;20169;-59
2023/04/07 00:29:35;;;;;;;26.02;18.10;;;;;;;7.85;64.87;99805.00;10255701;28;20068;-59
2023/04/07 00:34:37;;;;;;;24.08;17.40;;;;;;;7.83;64.75;99800.81;10253288;28;20042;-60
2023/04/07 00:39:38;;;;;;;17.60;13.38;;;;;;;7.74;65.00;99801.25;10251876;28;20502;-60
2023/04/07 00:44:40;;;;;;;17.90;14.68;;;;;;;7.66;65.12;99787.78;10255201;28;20059;-59
2023/04/07 00:49:42;;;;;;;14.60;12.02;;;;;;;7.71;64.90;99797.03;10270639;28;20043;-59
2023/04/07 00:54:45;;;;;;;18.08;14.38;;;;;;;7.70;65.00;99790.16;10255165;28;20305;-59
2023/04/07 00:59:49;;;;;;;17.80;13.88;;;;;;;7.71;65.00;99775.41;10263417;28;20047;-59
2023/04/07 01:05:04;;;;;;;28.70;19.20;;;;;;;7.95;65.02;99768.94;10277820;28;20142;-59
2023/04/07 01:10:13;;;;;;;39.53;23.13;;;;;;;8.03;64.84;99762.41;10262192;28;20066;-59
2023/04/07 01:15:29;;;;;;;22.85;15.93;;;;;;;7.79;65.18;99763.66;10276912;28;20571;-59
2023/04/07 01:20:34;;;;;;;20.65;15.45;;;;;;;7.95;65.01;99758.50;10258966;28;20053;-59
2023/04/07 01:26:16;;;;;;;20.65;14.25;;;;;;;8.06;64.97;99750.16;10264591;28;20047;-59
2023/04/07 01:31:21;;;;;;;29.98;19.92;;;;;;;8.15;64.70;99744.47;10296772;28;20066;-59
2023/04/07 01:36:27;;;;;;;36.05;22.27;;;;;;;8.24;64.53;99737.00;10304084;28;20388;-59
2023/04/07 01:41:30;;;;;;;45.13;25.77;;;;;;;8.24;64.51;99736.19;10262827;28;20414;-59
2023/04/07 01:46:31;;;;;;;19.73;16.42;;;;;;;8.12;64.55;99737.66;10262234;28;20066;-59
2023/04/07 01:51:34;;;;;;;18.35;15.05;;;;;;;8.17;64.43;99732.22;10259183;28;20059;-59
2023/04/07 01:56:36;;;;;;;21.98;17.17;;;;;;;8.09;64.46;99734.34;10259283;28;20035;-59
2023/04/07 02:01:40;;;;;;;20.98;17.15;;;;;;;7.96;64.81;99735.00;10264524;28;20057;-59
2023/04/07 02:06:51;;;;;;;16.77;13.82;;;;;;;8.08;64.93;99730.91;10264250;28;20101;-59
2023/04/07 02:12:04;;;;;;;20.58;16.60;;;;;;;8.00;64.73;99726.09;10265236;28;20133;-59
2023/04/07 02:17:10;;;;;;;34.33;21.83;;;;;;;8.04;64.99;99726.78;10283635;28;20096;-59
2023/04/07 02:22:14;;;;;;;26.10;19.67;;;;;;;7.96;65.03;99727.19;10279962;28;20070;-58
2023/04/07 02:27:16;;;;;;;21.90;16.27;;;;;;;8.03;65.00;99731.16;10282400;28;20043;-59
2023/04/07 02:32:18;;;;;;;22.55;17.52;;;;;;;8.10;64.83;99720.41;10265576;28;20051;-59
2023/04/07 02:37:19;;;;;;;21.17;16.67;;;;;;;8.13;64.86;99720.28;10265440;28;20039;-57
2023/04/07 02:42:21;;;;;;;28.92;20.20;;;;;;;8.22;64.81;99718.00;10264946;28;20114;-58
2023/04/07 02:47:24;;;;;;;142.98;36.30;;;;;;;8.26;64.61;99716.09;10269293;28;20047;-59
2023/04/07 02:52:26;;;;;;;39.70;23.98;;;;;;;8.10;64.82;99716.06;10264381;28;20054;-59
2023/04/07 02:57:27;;;;;;;32.53;21.05;;;;;;;8.02;65.12;99715.59;10263358;28;20042;-59
2023/04/07 03:02:33;;;;;;;30.65;19.52;;;;;;;8.00;65.13;99718.28;10259794;28;20042;-59
2023/04/07 03:07:35;;;;;;;28.42;19.65;;;;;;;7.95;65.23;99719.47;10279735;28;20039;-59
2023/04/07 03:12:38;;;;;;;31.48;20.25;;;;;;;7.93;65.21;99716.09;10238202;28;20046;-59
2023/04/07 03:17:40;;;;;;;26.58;19.45;;;;;;;7.91;65.34;99713.56;10274059;28;20050;-59
2023/04/07 03:22:43;;;;;;;28.00;20.65;;;;;;;7.74;65.71;99711.00;10256347;28;20051;-59
2023/04/07 03:27:51;;;;;;;25.13;18.83;;;;;;;7.87;65.79;99708.59;10254136;28;20105;-59
2023/04/07 03:32:54;;;;;;;34.80;21.73;;;;;;;7.91;65.55;99708.38;10256508;28;20057;-57
2023/04/07 03:37:56;;;;;;;62.75;27.90;;;;;;;8.07;65.44;99700.56;10272756;28;20653;-59
2023/04/07 03:42:59;;;;;;;90.57;34.25;;;;;;;8.14;65.17;99696.75;10254828;28;20324;-59
2023/04/07 03:48:01;;;;;;;47.17;27.08;;;;;;;7.96;65.35;99693.31;10256940;28;20046;-59
2023/04/07 03:53:04;;;;;;;44.28;26.27;;;;;;;8.02;65.45;99698.22;10272249;28;20059;-59
2023/04/07 03:58:06;;;;;;;35.55;23.45;;;;;;;8.00;65.41;99692.25;10238061;28;20178;-60
2023/04/07 04:03:10;;;;;;;30.30;21.52;;;;;;;8.04;65.23;99695.50;10254929;28;20502;-59
2023/04/07 04:08:22;;;;;;;39.60;24.85;;;;;;;8.02;65.16;99693.00;10268475;28;20430;-59
2023/04/07 04:13:24;;;;;;;38.95;25.35;;;;;;;7.89;65.47;99702.41;10254960;28;20422;-59
2023/04/07 04:18:27;;;;;;;49.63;28.23;;;;;;;7.87;65.55;99699.03;10267296;28;20780;-59
2023/04/07 04:23:31;;;;;;;39.78;24.92;;;;;;;8.02;65.55;99698.22;10255883;28;20053;-59
2023/04/07 04:28:33;;;;;;;41.45;24.85;;;;;;;8.12;65.37;99695.97;10255996;28;20751;-59
2023/04/07 04:33:38;;;;;;;48.40;26.67;;;;;;;8.22;65.17;99704.16;10246638;28;20129;-59
2023/04/07 04:38:39;;;;;;;40.92;26.42;;;;;;;8.22;64.97;99704.16;10258542;28;20504;-60
2023/04/07 04:43:49;;;;;;;24.85;19.30;;;;;;;8.16;65.00;99694.06;10262759;28;20130;-59
2023/04/07 04:48:56;;;;;;;41.60;25.75;;;;;;;8.12;65.17;99700.38;10275768;28;20337;-60
2023/04/07 04:53:59;;;;;;;32.25;22.13;;;;;;;8.02;65.39;99706.03;10275694;28;20187;-59
2023/04/07 04:59:03;;;;;;;26.83;20.67;;;;;;;8.03;65.48;99709.47;10260213;28;20054;-59
2023/04/07 05:04:13;;;;;;;38.40;23.08;;;;;;;8.06;65.55;99713.69;10281032;28;20043;-59
2023/04/07 05:09:21;;;;;;;30.33;22.33;;;;;;;8.18;65.43;99710.47;10255243;28;20429;-59
2023/04/07 05:14:23;;;;;;;31.75;21.88;;;;;;;8.25;65.21;99710.03;10262362;28;20427;-59
2023/04/07 05:19:36;;;;;;;69.20;30.13;;;;;;;8.20;65.27;99719.84;10258389;28;20125;-60
2023/04/07 05:24:45;;;;;;;38.10;24.08;;;;;;;8.15;65.44;99713.22;10261964;28;20137;-59
2023/04/07 05:29:47;;;;;;;34.28;22.98;;;;;;;8.08;65.54;99714.44;10260330;28;20070;-59
2023/04/07 05:34:57;;;;;;;30.75;20.92;;;;;;;8.11;65.51;99715.16;10274481;28;20054;-60
2023/04/07 05:40:05;;;;;;;40.05;24.88;;;;;;;8.10;65.51;99720.41;10254940;28;20054;-60
2023/04/07 05:45:08;;;;;;;43.17;25.52;;;;;;;8.23;65.49;99717.09;10258155;28;20057;-59
2023/04/07 05:50:14;;;;;;;30.77;21.73;;;;;;;8.16;65.37;99720.13;10255224;28;20388;-60
2023/04/07 05:55:19;;;;;;;35.92;22.83;;;;;;;8.16;65.40;99720.94;10245839;28;20537;-60
2023/04/07 06:00:21;;;;;;;25.25;19.35;;;;;;;8.13;65.47;99715.91;10252709;28;20078;-60
2023/04/07 06:05:33;;;;;;;35.78;22.88;;;;;;;8.24;65.52;99720.56;10267113;28;20047;-60
2023/04/07 06:10:35;;;;;;;27.27;20.20;;;;;;;8.25;65.46;99724.81;10253142;28;20146;-59
2023/04/07 06:15:37;;;;;;;26.85;19.98;;;;;;;8.13;65.66;99722.88;10248847;28;20060;-60
2023/04/07 06:20:39;;;;;;;23.35;18.42;;;;;;;8.21;65.69;99733.72;10247616;28;20054;-59
2023/04/07 06:25:41;;;;;;;26.13;19.63;;;;;;;8.27;65.63;99723.81;10249398;28;20384;-59
2023/04/07 06:30:43;;;;;;;30.92;21.75;;;;;;;8.19;65.86;99730.38;10250534;28;20542;-61
2023/04/07 06:35:46;;;;;;;53.42;27.58;;;;;;;8.25;65.79;99732.66;10246953;28;20057;-60
2023/04/07 06:40:48;;;;;;;42.35;26.35;;;;;;;8.19;65.83;99733.81;10253279;28;20050;-60
2023/04/07 06:45:50;;;;;;;27.10;19.98;;;;;;;8.27;65.94;99738.59;10256673;28;20043;-59
2023/04/07 06:50:52;;;;;;;28.85;20.02;;;;;;;8.30;66.04;99738.47;10249189;28;20051;-60
2023/04/07 06:56:09;;;;;;;34.92;22.02;;;;;;;8.48;65.98;99737.47;10248463;28;20296;-60
2023/04/07 07:01:11;;;;;;;24.38;18.50;;;;;;;8.59;65.51;99745.53;10259715;28;20755;-60
2023/04/07 07:06:12;;;;;;;22.17;17.55;;;;;;;8.71;65.35;99755.28;10266175;28;20505;-60
2023/04/07 07:11:14;;;;;;;23.83;17.30;;;;;;;8.53;65.86;99758.91;10252603;28;20065;-60
2023/04/07 07:16:16;;;;;;;32.85;20.55;;;;;;;8.59;65.54;99756.81;10261368;28;20054;-59
2023/04/07 07:21:18;;;;;;;22.77;17.13;;;;;;;8.82;65.21;99768.59;10270326;28;20194;-60
2023/04/07 07:26:20;;;;;;;22.88;17.08;;;;;;;9.00;64.80;99767.56;10231408;28;20043;-60
2023/04/07 07:31:23;;;;;;;21.00;15.80;;;;;;;9.05;64.74;99775.13;10250337;28;20051;-60
2023/04/07 07:36:25;;;;;;;20.50;16.10;;;;;;;9.16;64.63;99778.81;10248432;28;20053;-60
2023/04/07 07:41:27;;;;;;;18.25;14.88;;;;;;;9.14;64.49;99779.81;10277590;28;20581;-60
2023/04/07 07:46:29;;;;;;;18.88;14.75;;;;;;;9.06;64.61;99782.03;10259446;28;20053;-60
2023/04/07 07:51:31;;;;;;;21.63;16.85;;;;;;;9.02;64.70;99785.72;10261336;28;20050;-60
2023/04/07 07:56:32;;;;;;;24.98;18.42;;;;;;;9.14;64.75;99790.25;10250416;28;20041;-60
2023/04/07 08:01:34;;;;;;;23.08;18.60;;;;;;;9.21;64.56;99797.69;10256013;28;20046;-59
2023/04/07 08:06:36;;;;;;;31.80;22.58;;;;;;;9.11;64.74;99813.94;10255639;28;20086;-60
2023/04/07 08:11:38;;;;;;;32.17;22.35;;;;;;;9.23;64.83;99808.88;10250717;28;20056;-60
2023/04/07 08:16:40;;;;;;;27.67;21.25;;;;;;;9.38;64.33;99812.41;10248715;28;20047;-60
2023/04/07 08:21:42;;;;;;;28.02;21.38;;;;;;;9.52;63.80;99822.88;10252272;28;20610;-60
2023/04/07 08:26:44;;;;;;;30.63;22.13;;;;;;;9.67;63.82;99822.03;10247696;28;20058;-60
2023/04/07 08:31:46;;;;;;;27.52;20.08;;;;;;;9.64;63.31;99840.47;10252592;28;20046;-60
2023/04/07 08:36:48;;;;;;;24.00;18.67;;;;;;;9.53;63.64;99833.22;10250597;28;20054;-60
2023/04/07 08:41:50;;;;;;;23.30;18.02;;;;;;;9.73;63.39;99836.53;10254574;28;20151;-60
2023/04/07 08:46:58;;;;;;;24.52;19.55;;;;;;;9.78;63.28;99843.16;10251895;28;20038;-60
2023/04/07 08:52:05;;;;;;;19.67;17.15;;;;;;;9.75;62.54;99850.31;10254370;28;20129;-60
2023/04/07 08:57:11;;;;;;;20.13;16.20;;;;;;;9.72;62.14;99840.91;10254689;28;20047;-60
2023/04/07 09:02:14;;;;;;;18.50;15.48;;;;;;;9.66;62.71;99843.84;10255299;28;20414;-60
2023/04/07 09:07:16;;;;;;;17.25;13.95;;;;;;;9.80;62.39;99851.75;10255362;28;20043;-60
2023/04/07 09:12:18;;;;;;;17.83;14.95;;;;;;;9.89;61.98;99856.41;10249296;28;21343;-60
2023/04/07 09:17:20;;;;;;;21.30;16.98;;;;;;;9.99;62.17;99854.94;10278056;28;20329;-60
2023/04/07 09:22:41;;;;;;;21.90;16.17;;;;;;;9.90;62.04;99859.88;10263652;28;20451;-60
2023/04/07 09:27:58;;;;;;;21.80;16.90;;;;;;;9.65;63.10;99856.03;10260754;28;20081;-60
2023/04/07 09:33:00;;;;;;;20.15;16.35;;;;;;;9.44;63.07;99872.91;10264282;28;20057;-60
2023/04/07 09:38:08;;;;;;;23.83;18.35;;;;;;;9.45;63.73;99869.38;10267194;28;20047;-60
2023/04/07 09:43:17;;;;;;;24.27;17.67;;;;;;;9.71;63.56;99856.66;10266347;28;20231;-60
2023/04/07 09:48:20;;;;;;;23.23;17.58;;;;;;;9.88;63.12;99862.59;10269808;28;20078;-60
2023/04/07 09:53:47;;;;;;;16.25;14.25;;;;;;;9.62;62.55;99857.97;10293917;28;20058;-60
2023/04/07 09:58:53;;;;;;;19.85;15.68;;;;;;;9.57;63.07;99866.06;10264987;28;20418;-60
2023/04/07 10:03:55;;;;;;;20.40;15.73;;;;;;;9.65;63.10;99868.25;10263087;28;20042;-60
2023/04/07 10:08:57;;;;;;;18.48;14.80;;;;;;;9.49;63.48;99868.28;10261897;28;20156;-60
2023/04/07 10:13:59;;;;;;;22.17;16.80;;;;;;;9.43;63.79;99881.66;10262041;28;20057;-59
2023/04/07 10:19:01;;;;;;;22.70;17.02;;;;;;;9.36;64.04;99887.31;10260778;28;20038;-60
2023/04/07 10:24:08;;;;;;;20.50;15.85;;;;;;;9.60;64.05;99876.34;10258888;28;20054;-60
2023/04/07 10:29:13;;;;;;;19.80;14.68;;;;;;;9.74;63.87;99888.66;10261603;28;20031;-60
2023/04/07 10:34:15;;;;;;;16.67;12.90;;;;;;;9.76;63.09;99885.94;10257400;28;20059;-60
2023/04/07 10:39:17;;;;;;;12.40;10.35;;;;;;;9.64;63.40;99888.31;10259607;28;20123;-60
2023/04/07 10:44:39;;;;;;;15.98;13.23;;;;;;;9.68;63.98;99889.00;10261312;28;20050;-60
2023/04/07 10:50:15;;;;;;;16.95;13.20;;;;;;;9.96;63.90;99891.72;10260959;28;20266;-60
2023/04/07 10:55:32;;;;;;;14.90;11.70;;;;;;;10.28;63.07;99895.91;10259155;28;20046;-60
2023/04/07 11:00:34;;;;;;;13.75;11.75;;;;;;;10.44;62.86;99901.03;10258240;28;20047;-60
2023/04/07 11:05:37;;;;;;;11.90;9.38;;;;;;;10.44;62.37;99898.44;10258843;28;20045;-60
2023/04/07 11:10:39;;;;;;;12.07;9.10;;;;;;;10.36;62.43;99908.50;10258584;28;20099;-60
2023/04/07 11:15:41;;;;;;;12.57;10.40;;;;;;;10.31;62.91;99911.41;10256254;28;20848;-60
2023/04/07 11:20:50;;;;;;;13.00;10.05;;;;;;;10.26;63.28;99912.59;10253040;28;20384;-60
2023/04/07 11:26:00;;;;;;;18.02;13.15;;;;;;;9.84;64.30;99918.53;10256738;28;20038;-60
2023/04/07 11:31:03;;;;;;;9.45;7.97;;;;;;;9.78;63.55;99915.44;10261042;28;20057;-60
2023/04/07 11:36:06;;;;;;;12.93;10.43;;;;;;;9.96;63.50;99912.63;10264847;28;20083;-60
2023/04/07 11:41:14;;;;;;;15.57;12.00;;;;;;;10.35;63.58;99922.53;10264563;28;20420;-60
2023/04/07 11:46:17;;;;;;;10.95;8.95;;;;;;;10.40;62.49;99921.31;10266360;28;20054;-60
2023/04/07 11:51:24;;;;;;;12.55;10.85;;;;;;;10.25;62.90;99922.22;10278683;28;20051;-60
2023/04/07 11:56:27;;;;;;;12.20;10.15;;;;;;;10.17;63.14;99931.44;10259497;28;20471;-60
2023/04/07 12:01:40;;;;;;;11.85;9.23;;;;;;;10.13;63.40;99936.00;10258127;28;20462;-60
2023/04/07 12:06:43;;;;;;;11.95;10.02;;;;;;;10.22;63.29;99937.22;10258251;28;20054;-60
2023/04/07 12:11:49;;;;;;;13.25;11.18;;;;;;;10.28;63.54;99936.88;10254881;28;20385;-60
2023/04/07 12:16:51;;;;;;;13.55;10.13;;;;;;;10.36;63.62;99937.25;10254442;28;20186;-60
2023/04/07 12:21:54;;;;;;;11.30;9.35;;;;;;;10.37;63.77;99941.56;10257812;28;20055;-60
2023/04/07 12:26:57;;;;;;;12.70;9.10;;;;;;;10.49;63.63;99941.69;10256568;28;20043;-60
2023/04/07 12:31:58;;;;;;;10.82;8.95;;;;;;;10.45;63.72;99947.19;10255794;28;20367;-60
2023/04/07 12:37:00;;;;;;;8.85;6.95;;;;;;;10.10;64.12;99951.84;10256900;28;20039;-60
2023/04/07 12:42:02;;;;;;;6.90;5.57;;;;;;;9.97;64.27;99961.31;10257036;28;20122;-60
2023/04/07 12:47:04;;;;;;;4.70;3.20;;;;;;;9.79;64.22;99961.53;10257965;28;20133;-60
2023/04/07 12:52:06;;;;;;;4.35;3.53;;;;;;;9.85;64.67;99977.66;10264294;28;20055;-60
2023/04/07 12:57:08;;;;;;;5.00;2.97;;;;;;;9.77;64.19;99976.44;10263651;28;20046;-60
2023/04/07 13:02:12;;;;;;;5.10;3.85;;;;;;;9.74;65.13;99985.28;10266019;28;20061;-60
2023/04/07 13:07:14;;;;;;;5.90;2.90;;;;;;;10.38;64.21;99983.31;10265382;28;20093;-60
2023/04/07 13:12:16;;;;;;;4.82;3.30;;;;;;;10.44;63.74;99985.56;10264644;28;20046;-60
2023/04/07 13:17:18;;;;;;;4.43;3.40;;;;;;;10.42;63.64;99994.41;10263898;28;20039;-60
2023/04/07 13:22:20;;;;;;;3.40;2.72;;;;;;;10.50;62.94;99989.63;10273185;28;20042;-60
2023/04/07 13:27:24;;;;;;;6.45;3.80;;;;;;;10.72;63.09;99991.78;10276888;28;20499;-59
2023/04/07 13:32:26;;;;;;;3.92;2.95;;;;;;;11.16;62.88;99987.38;10277730;28;20395;-60
2023/04/07 13:37:28;;;;;;;3.53;2.63;;;;;;;11.24;61.29;99985.13;10275096;28;20055;-60
2023/04/07 13:42:30;;;;;;;3.65;2.83;;;;;;;11.30;61.68;99988.22;10279983;28;20035;-60
2023/04/07 13:47:33;;;;;;;3.10;2.00;;;;;;;11.25;60.79;99985.03;10277795;28;20050;-60
2023/04/07 13:52:35;;;;;;;3.70;2.30;;;;;;;11.31;60.46;99983.81;10279853;28;20510;-60
2023/04/07 13:57:37;;;;;;;3.08;2.10;;;;;;;11.95;60.69;99983.19;10279984;28;20062;-60
2023/04/07 14:02:39;;;;;;;3.20;2.20;;;;;;;12.32;59.31;99987.75;10273233;28;20047;-61
2023/04/07 14:07:40;;;;;;;4.07;3.22;;;;;;;12.33;59.66;99983.38;10276161;28;20051;-60
2023/04/07 14:12:42;;;;;;;4.82;2.40;;;;;;;12.93;58.55;99977.44;10278369;28;20047;-60
2023/04/07 14:17:44;;;;;;;3.38;2.35;;;;;;;12.66;59.55;99974.06;10278265;28;20047;-60
2023/04/07 14:22:46;;;;;;;3.38;2.00;;;;;;;11.78;60.02;99991.31;10282007;28;20445;-60
2023/04/07 14:27:47;;;;;;;2.33;1.50;;;;;;;11.19;60.48;99989.81;10279019;28;20053;-60
2023/04/07 14:32:49;;;;;;;2.40;1.30;;;;;;;10.70;60.47;100001.50;10276338;28;20502;-61
2023/04/07 14:37:51;;;;;;;1.80;1.38;;;;;;;10.41;60.97;99997.97;10274070;28;20562;-60
2023/04/07 14:42:53;;;;;;;2.10;1.20;;;;;;;10.19;60.85;100003.59;10263835;28;20274;-60
2023/04/07 14:48:08;;;;;;;1.83;1.27;;;;;;;10.31;61.36;100002.91;10267094;28;20037;-61
2023/04/07 14:53:10;;;;;;;1.98;1.25;;;;;;;10.67;60.07;99999.91;10256616;28;20047;-60
2023/04/07 14:58:11;;;;;;;1.50;1.17;;;;;;;10.99;59.65;100000.63;10252882;28;20058;-60
2023/04/07 15:03:13;;;;;;;3.83;1.70;;;;;;;11.25;60.41;99998.09;10257239;28;20062;-60
2023/04/07 15:08:15;;;;;;;4.18;1.60;;;;;;;11.66;60.00;100006.00;10249012;28;20162;-61
2023/04/07 15:13:17;;;;;;;2.90;1.60;;;;;;;11.42;60.12;100009.34;10274242;28;20560;-60
2023/04/07 15:18:19;;;;;;;2.35;1.20;;;;;;;11.21;58.29;100011.50;10254636;28;20054;-60
2023/04/07 15:23:20;;;;;;;1.80;1.30;;;;;;;11.10;58.78;100014.75;10257822;28;20446;-60
2023/04/07 15:28:23;;;;;;;1.63;1.30;;;;;;;10.96;59.72;100016.50;10257895;28;20050;-60
2023/04/07 15:33:25;;;;;;;3.10;1.27;;;;;;;10.82;59.71;100014.72;10259619;28;20148;-60
2023/04/07 15:38:28;;;;;;;1.55;1.25;;;;;;;10.82;60.41;100016.47;10279336;28;20053;-61
2023/04/07 15:43:29;;;;;;;1.88;1.38;;;;;;;10.54;61.01;100014.66;10263716;28;20045;-60
2023/04/07 15:48:31;;;;;;;1.92;1.17;;;;;;;10.54;60.14;100024.25;10256355;28;20129;-60
2023/04/07 15:53:33;;;;;;;3.88;1.45;;;;;;;10.48;60.94;100033.31;10262442;28;20047;-60
2023/04/07 15:58:35;;;;;;;2.42;1.45;;;;;;;10.53;60.79;100031.25;10251555;28;20034;-60
2023/04/07 16:03:37;;;;;;;2.90;1.50;;;;;;;10.56;61.00;100038.94;10251948;28;20043;-60
2023/04/07 16:08:39;;;;;;;2.33;1.40;;;;;;;10.68;60.61;100037.38;10251049;28;20509;-60
2023/04/07 16:13:40;;;;;;;1.90;1.40;;;;;;;10.79;59.99;100041.03;10259087;28;20529;-60
2023/04/07 16:18:42;;;;;;;2.65;1.58;;;;;;;10.78;60.57;100044.59;10253810;28;20051;-60
2023/04/07 16:23:44;;;;;;;2.50;1.40;;;;;;;10.77;59.66;100048.13;10247098;28;20061;-60
2023/04/07 16:28:46;;;;;;;3.10;1.60;;;;;;;10.99;60.25;100047.72;10267356;28;20671;-60
2023/04/07 16:33:51;;;;;;;2.58;1.50;;;;;;;11.04;60.51;100046.53;10254491;28;20049;-60
2023/04/07 16:38:53;;;;;;;2.63;1.52;;;;;;;11.11;60.23;100052.25;10247024;28;20073;-58
2023/04/07 16:43:55;;;;;;;4.45;1.90;;;;;;;11.05;60.37;100057.88;10252564;28;20049;-58
2023/04/07 16:48:56;;;;;;;2.67;1.77;;;;;;;10.98;60.81;100064.34;10250094;28;20813;-60
2023/04/07 16:53:58;;;;;;;3.10;1.90;;;;;;;10.96;61.40;100069.69;10248600;28;20057;-58
2023/04/07 16:59:00;;;;;;;5.25;2.25;;;;;;;10.98;61.69;100073.03;10249574;28;20149;-58
2023/04/07 17:04:04;;;;;;;3.15;2.00;;;;;;;10.86;61.91;100080.78;10256225;28;20054;-58
2023/04/07 17:09:06;;;;;;;4.90;1.80;;;;;;;10.83;62.16;100081.78;10249647;28;20454;-58
2023/04/07 17:14:08;;;;;;;4.00;2.35;;;;;;;10.83;62.41;100084.41;10253917;28;20047;-58
2023/04/07 17:19:10;;;;;;;5.95;3.30;;;;;;;10.77;63.08;100095.22;10249957;28;20498;-61
2023/04/07 17:24:14;;;;;;;7.07;3.38;;;;;;;10.68;63.15;100101.00;10253906;28;20398;-60
2023/04/07 17:29:17;;;;;;;5.72;3.53;;;;;;;10.66;63.49;100100.25;10247693;28;20050;-60
2023/04/07 17:34:18;;;;;;;4.57;3.22;;;;;;;10.52;63.82;100105.44;10254913;28;20407;-59
2023/04/07 17:39:21;;;;;;;4.97;3.17;;;;;;;10.33;63.73;100115.22;10266636;28;20078;-61
2023/04/07 17:44:22;;;;;;;6.63;4.60;;;;;;;10.36;64.19;100115.88;10283573;28;20047;-61
2023/04/07 17:49:25;;;;;;;7.53;4.90;;;;;;;10.20;64.72;100122.03;10264624;28;20640;-61
2023/04/07 17:54:27;;;;;;;5.63;3.25;;;;;;;10.10;64.88;100128.69;10254390;28;20321;-61
2023/04/07 17:59:29;;;;;;;5.80;3.63;;;;;;;10.07;65.11;100134.97;10258920;28;20561;-59
2023/04/07 18:04:30;;;;;;;4.47;3.15;;;;;;;10.09;65.25;100140.09;10274878;28;20134;-59
2023/04/07 18:09:33;;;;;;;6.28;3.75;;;;;;;10.10;65.26;100147.00;10251793;28;20455;-59
2023/04/07 18:14:35;;;;;;;5.28;3.40;;;;;;;10.04;65.20;100149.94;10255598;28;20043;-60
2023/04/07 18:19:37;;;;;;;5.70;3.65;;;;;;;10.00;65.46;100151.03;10237232;28;20877;-60
2023/04/07 18:24:39;;;;;;;11.93;6.70;;;;;;;9.88;65.75;100160.38;10259407;28;20657;-60
2023/04/07 18:29:40;;;;;;;14.07;9.02;;;;;;;9.87;65.62;100157.84;10259815;28;20046;-60
2023/04/07 18:34:46;;;;;;;11.75;6.80;;;;;;;9.85;65.84;100168.34;10269071;28;21971;-59
2023/04/07 18:39:48;;;;;;;9.23;5.70;;;;;;;9.85;66.02;100170.16;10267298;28;20046;-60
2023/04/07 18:44:50;;;;;;;7.25;4.35;;;;;;;9.85;65.77;100170.16;10260131;28;20186;-60
2023/04/07 18:49:52;;;;;;;12.18;5.68;;;;;;;9.74;66.07;100173.31;10257950;28;20065;-60
2023/04/07 18:54:54;;;;;;;11.57;7.60;;;;;;;9.57;66.09;100182.00;10257290;28;20411;-60
2023/04/07 18:59:57;;;;;;;14.82;10.10;;;;;;;9.43;66.21;100188.84;10304595;28;20137;-60
2023/04/07 19:04:59;;;;;;;14.77;8.18;;;;;;;9.37;66.23;100195.22;10260707;28;20134;-59
2023/04/07 19:10:00;;;;;;;24.83;12.88;;;;;;;9.27;66.31;100198.38;10258965;28;20435;-60
2023/04/07 19:15:03;;;;;;;16.33;10.30;;;;;;;9.07;66.47;100209.81;10257163;28;20112;-61
2023/04/07 19:20:07;;;;;;;16.33;8.82;;;;;;;9.00;66.86;100213.63;10256849;28;20397;-61
2023/04/07 19:25:08;;;;;;;13.77;9.60;;;;;;;8.79;66.49;100219.91;10261800;28;20061;-61
2023/04/07 19:30:10;;;;;;;15.63;10.73;;;;;;;8.67;66.52;100217.84;10265182;28;20047;-61
2023/04/07 19:35:13;;;;;;;22.95;14.25;;;;;;;8.58;66.45;100228.72;10263831;28;20545;-61
2023/04/07 19:40:15;;;;;;;28.27;18.63;;;;;;;8.45;66.52;100238.88;10275905;28;20444;-60
2023/04/07 19:45:17;;;;;;;21.17;12.57;;;;;;;8.45;66.56;100236.25;10264777;28;20053;-60
2023/04/07 19:50:19;;;;;;;22.70;12.95;;;;;;;8.46;66.74;100237.13;10257862;28;20133;-60
2023/04/07 19:55:21;;;;;;;17.50;11.38;;;;;;;8.44;66.67;100247.63;10259323;28;20061;-61
2023/04/07 20:00:23;;;;;;;29.10;12.45;;;;;;;8.45;67.00;100249.28;10257846;28;20527;-61
2023/04/07 20:05:26;;;;;;;27.38;12.30;;;;;;;8.42;66.98;100256.41;10256740;28;20069;-61
2023/04/07 20:10:28;;;;;;;26.90;13.23;;;;;;;8.39;66.93;100253.94;10258075;28;20078;-61
2023/04/07 20:15:30;;;;;;;32.65;15.07;;;;;;;8.39;67.09;100262.59;10254442;28;20053;-61
2023/04/07 20:20:32;;;;;;;20.20;11.80;;;;;;;8.43;67.14;100265.91;10268870;28;20054;-61
2023/04/07 20:25:33;;;;;;;23.33;13.13;;;;;;;8.47;66.96;100268.31;10256392;28;20654;-61
2023/04/07 20:30:35;;;;;;;24.27;14.23;;;;;;;8.47;66.82;100270.91;10255624;28;20069;-61
2023/04/07 20:35:37;;;;;;;32.30;15.05;;;;;;;8.41;66.91;100272.94;10258931;28;20054;-61
2023/04/07 20:40:39;;;;;;;35.97;14.20;;;;;;;8.36;66.87;100274.94;10259220;28;21054;-61
2023/04/07 20:45:41;;;;;;;30.88;16.02;;;;;;;8.19;67.21;100277.44;10256541;28;20418;-61
2023/04/07 20:50:43;;;;;;;36.38;16.75;;;;;;;8.03;67.53;100278.09;10273401;28;22052;-61
2023/04/07 20:55:46;;;;;;;32.88;16.63;;;;;;;7.92;67.55;100285.53;10260879;28;20078;-61
2023/04/07 21:00:54;;;;;;;33.55;16.48;;;;;;;7.89;67.63;100283.06;10258547;28;20129;-61
2023/04/07 21:05:57;;;;;;;29.83;15.07;;;;;;;7.86;67.73;100285.78;10258442;28;20252;-61
2023/04/07 21:10:58;;;;;;;38.28;17.85;;;;;;;7.85;67.48;100284.06;10259975;28;20050;-61
2023/04/07 21:16:02;;;;;;;28.20;14.30;;;;;;;7.79;67.44;100286.94;10265159;28;20375;-61
2023/04/07 21:21:06;;;;;;;31.67;15.95;;;;;;;7.83;67.48;100290.28;10264778;28;20053;-61
2023/04/07 21:26:08;;;;;;;36.70;17.75;;;;;;;7.81;67.45;100290.34;10264847;28;20051;-60
2023/04/07 21:31:18;;;;;;;31.95;16.58;;;;;;;7.85;67.43;100278.88;10263528;28;20399;-60
2023/04/07 21:36:20;;;;;;;53.78;20.13;;;;;;;7.83;67.48;100279.88;10262280;28;20332;-61
2023/04/07 21:41:22;;;;;;;31.35;15.82;;;;;;;7.79;67.75;100283.53;10263389;28;20415;-61
2023/04/07 21:46:24;;;;;;;40.20;18.42;;;;;;;7.79;67.54;100280.91;10262804;28;20051;-61
2023/04/07 21:51:26;;;;;;;35.85;17.85;;;;;;;7.78;67.65;100287.03;10260972;28;20415;-60
2023/04/07 21:56:28;;;;;;;41.72;19.70;;;;;;;7.81;67.61;100290.34;10261961;28;20065;-61
2023/04/07 22:01:29;;;;;;;23.35;15.85;;;;;;;7.86;67.53;100288.38;10278884;28;20333;-60
2023/04/07 22:06:31;;;;;;;38.33;20.48;;;;;;;7.97;67.40;100295.75;10263210;28;20054;-61
2023/04/07 22:11:33;;;;;;;32.65;17.83;;;;;;;7.97;67.33;100295.75;10260938;28;20495;-60
2023/04/07 22:16:38;;;;;;;31.95;18.35;;;;;;;8.01;67.26;100302.50;10260907;28;20122;-60
2023/04/07 22:21:40;;;;;;;28.65;17.13;;;;;;;8.01;67.21;100295.56;10261800;28;20055;-60
2023/04/07 22:26:42;;;;;;;32.65;17.48;;;;;;;8.03;67.29;100303.28;10262463;28;20051;-60
2023/04/07 22:31:43;;;;;;;38.72;20.20;;;;;;;8.08;67.26;100316.13;10262950;28;20047;-60
2023/04/07 22:36:45;;;;;;;40.17;19.75;;;;;;;8.17;67.22;100320.94;10262286;28;20051;-60
2023/04/07 22:41:47;;;;;;;32.30;19.13;;;;;;;8.31;67.04;100323.78;10281505;28;20057;-60
2023/04/07 22:46:49;;;;;;;24.63;18.70;;;;;;;8.34;66.71;100323.69;10260638;28;20298;-60
2023/04/07 22:51:51;;;;;;;31.88;19.33;;;;;;;8.42;66.83;100327.63;10263175;28;20063;-60
2023/04/07 22:56:52;;;;;;;33.63;19.27;;;;;;;8.46;66.72;100328.34;10260474;28;20134;-61
2023/04/07 23:01:54;;;;;;;44.28;21.98;;;;;;;8.42;66.77;100327.63;10259418;28;20399;-61
2023/04/07 23:06:58;;;;;;;45.60;21.83;;;;;;;8.46;66.71;100323.13;10281281;28;20042;-60
2023/04/07 23:12:00;;;;;;;49.45;22.15;;;;;;;8.42;66.62;100332.84;10260866;28;20047;-60
2023/04/07 23:17:02;;;;;;;42.03;20.83;;;;;;;8.39;66.71;100334.72;10258583;28;20419;-61